sensor_id;sensor_type;location;lat;lon;timestamp;P1;durP1;ratioP1;P2;durP2;ratioP2
18651;SDS011;9455;54.302;10.124;2023-08-08T00:00:52;6.87;;;1.97;;
18651;SDS011;9455;54.302;10.124;2023-08-08T00:03:19;11.90;;;2.20;;
18651;SDS011;9455;54.302;10.124;2023-08-08T00:05:46;8.93;;;1.53;;
18651;SDS011;9455;54.302;10.124;2023-08-08T00:08:13;17.27;;;2.00;;
18651;SDS011;9455;54.302;10.124;2023-08-08T00:10:41;11.60;;;2.67;;
18651;SDS011;9455;54.302;10.124;2023-08-08T00:13:07;13.00;;;2.27;;
18651;SDS011;9455;54.302;10.124;2023-08-08T00:15:34;15.40;;;2.57;;
18651;SDS011;9455;54.302;10.124;2023-08-08T00:18:01;15.07;;;2.00;;
18651;SDS011;9455;54.302;10.124;2023-08-08T00:20:28;5.93;;;1.77;;
18651;SDS011;9455;54.302;10.124;2023-08-08T00:22:54;11.00;;;1.80;;
18651;SDS011;9455;54.302;10.124;2023-08-08T00:25:21;14.30;;;2.10;;
18651;SDS011;9455;54.302;10.124;2023-08-08T00:27:49;9.87;;;1.77;;
18651;SDS011;9455;54.302;10.124;2023-08-08T00:30:16;10.23;;;2.07;;
18651;SDS011;9455;54.302;10.124;2023-08-08T00:32:42;10.53;;;1.90;;
18651;SDS011;9455;54.302;10.124;2023-08-08T00:35:09;6.20;;;2.63;;
18651;SDS011;9455;54.302;10.124;2023-08-08T00:37:36;14.97;;;2.17;;
18651;SDS011;9455;54.302;10.124;2023-08-08T00:40:03;10.83;;;2.33;;
18651;SDS011;9455;54.302;10.124;2023-08-08T00:42:30;14.27;;;1.87;;
18651;SDS011;9455;54.302;10.124;2023-08-08T00:44:58;11.10;;;2.10;;
18651;SDS011;9455;54.302;10.124;2023-08-08T00:47:28;6.70;;;2.00;;
18651;SDS011;9455;54.302;10.124;2023-08-08T00:49:56;6.10;;;1.87;;
18651;SDS011;9455;54.302;10.124;2023-08-08T00:52:23;20.57;;;3.73;;
18651;SDS011;9455;54.302;10.124;2023-08-08T00:54:50;13.97;;;3.13;;
18651;SDS011;9455;54.302;10.124;2023-08-08T00:57:17;11.20;;;2.20;;
18651;SDS011;9455;54.302;10.124;2023-08-08T00:59:44;8.37;;;2.07;;
18651;SDS011;9455;54.302;10.124;2023-08-08T01:02:12;5.97;;;2.17;;
18651;SDS011;9455;54.302;10.124;2023-08-08T01:04:39;14.87;;;1.80;;
18651;SDS011;9455;54.302;10.124;2023-08-08T01:07:08;11.60;;;1.93;;
18651;SDS011;9455;54.302;10.124;2023-08-08T01:09:45;5.93;;;1.80;;
18651;SDS011;9455;54.302;10.124;2023-08-08T01:12:17;16.10;;;2.57;;
18651;SDS011;9455;54.302;10.124;2023-08-08T01:14:44;9.17;;;1.83;;
18651;SDS011;9455;54.302;10.124;2023-08-08T01:17:12;6.33;;;1.40;;
18651;SDS011;9455;54.302;10.124;2023-08-08T01:19:40;10.23;;;1.80;;
18651;SDS011;9455;54.302;10.124;2023-08-08T01:22:09;8.63;;;1.60;;
18651;SDS011;9455;54.302;10.124;2023-08-08T01:24:50;9.87;;;1.57;;
18651;SDS011;9455;54.302;10.124;2023-08-08T01:27:17;5.23;;;2.10;;
18651;SDS011;9455;54.302;10.124;2023-08-08T01:29:44;9.07;;;1.73;;
18651;SDS011;9455;54.302;10.124;2023-08-08T01:32:10;11.67;;;2.00;;
18651;SDS011;9455;54.302;10.124;2023-08-08T01:34:37;8.27;;;1.67;;
18651;SDS011;9455;54.302;10.124;2023-08-08T01:37:06;7.83;;;2.10;;
18651;SDS011;9455;54.302;10.124;2023-08-08T01:39:37;20.37;;;1.70;;
18651;SDS011;9455;54.302;10.124;2023-08-08T01:42:06;5.17;;;1.50;;
18651;SDS011;9455;54.302;10.124;2023-08-08T01:44:33;9.20;;;1.90;;
18651;SDS011;9455;54.302;10.124;2023-08-08T01:47:00;4.13;;;1.20;;
18651;SDS011;9455;54.302;10.124;2023-08-08T01:49:27;9.83;;;1.70;;
18651;SDS011;9455;54.302;10.124;2023-08-08T01:51:53;9.77;;;2.87;;
18651;SDS011;9455;54.302;10.124;2023-08-08T01:54:20;5.73;;;2.13;;
18651;SDS011;9455;54.302;10.124;2023-08-08T01:56:46;11.47;;;1.67;;
18651;SDS011;9455;54.302;10.124;2023-08-08T01:59:14;7.30;;;2.93;;
18651;SDS011;9455;54.302;10.124;2023-08-08T02:01:41;3.73;;;1.83;;
18651;SDS011;9455;54.302;10.124;2023-08-08T02:04:07;14.27;;;2.20;;
18651;SDS011;9455;54.302;10.124;2023-08-08T02:06:34;11.63;;;2.70;;
18651;SDS011;9455;54.302;10.124;2023-08-08T02:09:01;5.20;;;1.10;;
18651;SDS011;9455;54.302;10.124;2023-08-08T02:11:27;11.43;;;1.97;;
18651;SDS011;9455;54.302;10.124;2023-08-08T02:13:54;14.07;;;1.83;;
18651;SDS011;9455;54.302;10.124;2023-08-08T02:16:22;8.70;;;1.83;;
18651;SDS011;9455;54.302;10.124;2023-08-08T02:18:48;5.90;;;1.30;;
18651;SDS011;9455;54.302;10.124;2023-08-08T02:24:18;6.90;;;1.77;;
18651;SDS011;9455;54.302;10.124;2023-08-08T02:26:45;4.37;;;1.57;;
18651;SDS011;9455;54.302;10.124;2023-08-08T02:29:11;11.00;;;1.70;;
18651;SDS011;9455;54.302;10.124;2023-08-08T02:31:39;10.73;;;1.63;;
18651;SDS011;9455;54.302;10.124;2023-08-08T02:34:06;8.33;;;1.93;;
18651;SDS011;9455;54.302;10.124;2023-08-08T02:36:32;15.37;;;3.37;;
18651;SDS011;9455;54.302;10.124;2023-08-08T02:38:59;8.63;;;1.63;;
18651;SDS011;9455;54.302;10.124;2023-08-08T02:41:25;9.93;;;1.97;;
18651;SDS011;9455;54.302;10.124;2023-08-08T02:43:52;10.60;;;2.20;;
18651;SDS011;9455;54.302;10.124;2023-08-08T02:46:19;15.87;;;2.10;;
18651;SDS011;9455;54.302;10.124;2023-08-08T02:48:46;10.40;;;2.43;;
18651;SDS011;9455;54.302;10.124;2023-08-08T02:51:13;5.10;;;2.20;;
18651;SDS011;9455;54.302;10.124;2023-08-08T02:53:40;5.10;;;1.67;;
18651;SDS011;9455;54.302;10.124;2023-08-08T02:56:06;11.57;;;1.80;;
18651;SDS011;9455;54.302;10.124;2023-08-08T02:58:33;13.80;;;2.17;;
18651;SDS011;9455;54.302;10.124;2023-08-08T03:00:59;6.73;;;1.60;;
18651;SDS011;9455;54.302;10.124;2023-08-08T03:03:26;8.63;;;1.83;;
18651;SDS011;9455;54.302;10.124;2023-08-08T03:05:54;9.70;;;1.70;;
18651;SDS011;9455;54.302;10.124;2023-08-08T03:08:20;5.93;;;1.67;;
18651;SDS011;9455;54.302;10.124;2023-08-08T03:10:47;7.97;;;1.50;;
18651;SDS011;9455;54.302;10.124;2023-08-08T03:13:13;6.67;;;1.70;;
18651;SDS011;9455;54.302;10.124;2023-08-08T03:15:40;9.20;;;1.73;;
18651;SDS011;9455;54.302;10.124;2023-08-08T03:18:06;8.67;;;1.57;;
18651;SDS011;9455;54.302;10.124;2023-08-08T03:20:33;2.40;;;1.40;;
18651;SDS011;9455;54.302;10.124;2023-08-08T03:23:01;4.27;;;1.30;;
18651;SDS011;9455;54.302;10.124;2023-08-08T03:25:27;6.20;;;1.93;;
18651;SDS011;9455;54.302;10.124;2023-08-08T03:27:54;9.77;;;2.13;;
18651;SDS011;9455;54.302;10.124;2023-08-08T03:30:21;8.40;;;1.40;;
18651;SDS011;9455;54.302;10.124;2023-08-08T03:32:47;10.73;;;1.63;;
18651;SDS011;9455;54.302;10.124;2023-08-08T03:35:14;8.60;;;1.67;;
18651;SDS011;9455;54.302;10.124;2023-08-08T03:37:41;6.57;;;1.93;;
18651;SDS011;9455;54.302;10.124;2023-08-08T03:40:09;6.53;;;1.80;;
18651;SDS011;9455;54.302;10.124;2023-08-08T03:42:37;2.93;;;1.43;;
18651;SDS011;9455;54.302;10.124;2023-08-08T03:45:04;5.47;;;1.90;;
18651;SDS011;9455;54.302;10.124;2023-08-08T03:47:31;3.73;;;1.30;;
18651;SDS011;9455;54.302;10.124;2023-08-08T03:49:58;9.20;;;2.13;;
18651;SDS011;9455;54.302;10.124;2023-08-08T03:52:24;8.37;;;1.10;;
18651;SDS011;9455;54.302;10.124;2023-08-08T03:54:51;5.50;;;1.37;;
18651;SDS011;9455;54.302;10.124;2023-08-08T03:57:19;8.97;;;1.37;;
18651;SDS011;9455;54.302;10.124;2023-08-08T03:59:46;2.77;;;0.90;;
18651;SDS011;9455;54.302;10.124;2023-08-08T04:02:12;5.30;;;1.60;;
18651;SDS011;9455;54.302;10.124;2023-08-08T04:04:39;11.37;;;1.93;;
18651;SDS011;9455;54.302;10.124;2023-08-08T04:07:05;4.60;;;1.50;;
18651;SDS011;9455;54.302;10.124;2023-08-08T04:09:32;3.83;;;1.40;;
18651;SDS011;9455;54.302;10.124;2023-08-08T04:11:58;6.10;;;1.37;;
18651;SDS011;9455;54.302;10.124;2023-08-08T04:14:26;13.00;;;1.63;;
18651;SDS011;9455;54.302;10.124;2023-08-08T04:16:53;10.93;;;1.50;;
18651;SDS011;9455;54.302;10.124;2023-08-08T04:19:19;6.07;;;1.23;;
18651;SDS011;9455;54.302;10.124;2023-08-08T04:21:46;9.93;;;1.50;;
18651;SDS011;9455;54.302;10.124;2023-08-08T04:24:12;9.93;;;1.50;;
18651;SDS011;9455;54.302;10.124;2023-08-08T04:26:39;4.63;;;1.20;;
18651;SDS011;9455;54.302;10.124;2023-08-08T04:29:06;2.87;;;1.40;;
18651;SDS011;9455;54.302;10.124;2023-08-08T04:31:34;5.67;;;1.40;;
18651;SDS011;9455;54.302;10.124;2023-08-08T04:34:00;9.33;;;1.50;;
18651;SDS011;9455;54.302;10.124;2023-08-08T04:36:27;3.23;;;1.30;;
18651;SDS011;9455;54.302;10.124;2023-08-08T04:38:54;7.93;;;2.03;;
18651;SDS011;9455;54.302;10.124;2023-08-08T04:41:21;5.53;;;1.40;;
18651;SDS011;9455;54.302;10.124;2023-08-08T04:43:47;7.47;;;2.13;;
18651;SDS011;9455;54.302;10.124;2023-08-08T04:46:14;4.73;;;1.83;;
18651;SDS011;9455;54.302;10.124;2023-08-08T04:48:42;6.50;;;1.07;;
18651;SDS011;9455;54.302;10.124;2023-08-08T04:51:08;4.63;;;1.30;;
18651;SDS011;9455;54.302;10.124;2023-08-08T04:53:35;7.83;;;1.67;;
18651;SDS011;9455;54.302;10.124;2023-08-08T04:56:02;7.83;;;2.33;;
18651;SDS011;9455;54.302;10.124;2023-08-08T04:58:29;4.97;;;1.73;;
18651;SDS011;9455;54.302;10.124;2023-08-08T05:00:56;12.53;;;2.07;;
18651;SDS011;9455;54.302;10.124;2023-08-08T05:03:22;9.67;;;1.40;;
18651;SDS011;9455;54.302;10.124;2023-08-08T05:05:50;10.93;;;1.90;;
18651;SDS011;9455;54.302;10.124;2023-08-08T05:08:17;8.73;;;1.30;;
18651;SDS011;9455;54.302;10.124;2023-08-08T05:10:43;14.50;;;2.40;;
18651;SDS011;9455;54.302;10.124;2023-08-08T05:13:10;7.53;;;1.37;;
18651;SDS011;9455;54.302;10.124;2023-08-08T05:15:36;4.10;;;1.43;;
18651;SDS011;9455;54.302;10.124;2023-08-08T05:18:03;7.57;;;1.20;;
18651;SDS011;9455;54.302;10.124;2023-08-08T05:20:30;3.90;;;1.50;;
18651;SDS011;9455;54.302;10.124;2023-08-08T05:22:58;12.03;;;1.50;;
18651;SDS011;9455;54.302;10.124;2023-08-08T05:25:25;8.30;;;1.90;;
18651;SDS011;9455;54.302;10.124;2023-08-08T05:27:51;6.43;;;1.20;;
18651;SDS011;9455;54.302;10.124;2023-08-08T05:30:18;5.20;;;1.93;;
18651;SDS011;9455;54.302;10.124;2023-08-08T05:32:45;6.67;;;1.40;;
18651;SDS011;9455;54.302;10.124;2023-08-08T05:35:11;11.53;;;1.70;;
18651;SDS011;9455;54.302;10.124;2023-08-08T05:37:39;3.90;;;1.43;;
18651;SDS011;9455;54.302;10.124;2023-08-08T05:40:07;10.43;;;1.30;;
18651;SDS011;9455;54.302;10.124;2023-08-08T05:42:35;1.43;;;0.77;;
18651;SDS011;9455;54.302;10.124;2023-08-08T05:45:02;3.40;;;1.73;;
18651;SDS011;9455;54.302;10.124;2023-08-08T05:47:28;3.10;;;1.40;;
18651;SDS011;9455;54.302;10.124;2023-08-08T05:49:55;12.10;;;1.27;;
18651;SDS011;9455;54.302;10.124;2023-08-08T05:52:22;11.43;;;1.83;;
18651;SDS011;9455;54.302;10.124;2023-08-08T05:54:48;1.20;;;1.10;;
18651;SDS011;9455;54.302;10.124;2023-08-08T05:57:16;2.57;;;1.23;;
18651;SDS011;9455;54.302;10.124;2023-08-08T05:59:43;9.27;;;1.17;;
18651;SDS011;9455;54.302;10.124;2023-08-08T06:02:10;11.77;;;1.70;;
18651;SDS011;9455;54.302;10.124;2023-08-08T06:04:36;5.27;;;1.13;;
18651;SDS011;9455;54.302;10.124;2023-08-08T06:07:03;2.53;;;1.40;;
18651;SDS011;9455;54.302;10.124;2023-08-08T06:09:30;9.10;;;1.87;;
18651;SDS011;9455;54.302;10.124;2023-08-08T06:11:57;3.30;;;1.40;;
18651;SDS011;9455;54.302;10.124;2023-08-08T06:14:25;8.97;;;1.20;;
18651;SDS011;9455;54.302;10.124;2023-08-08T06:16:52;4.10;;;1.10;;
18651;SDS011;9455;54.302;10.124;2023-08-08T06:19:19;3.07;;;1.37;;
18651;SDS011;9455;54.302;10.124;2023-08-08T06:21:45;7.83;;;2.07;;
18651;SDS011;9455;54.302;10.124;2023-08-08T06:24:13;9.90;;;1.40;;
18651;SDS011;9455;54.302;10.124;2023-08-08T06:26:40;5.93;;;1.20;;
18651;SDS011;9455;54.302;10.124;2023-08-08T06:29:07;11.73;;;1.70;;
18651;SDS011;9455;54.302;10.124;2023-08-08T06:31:34;8.73;;;1.00;;
18651;SDS011;9455;54.302;10.124;2023-08-08T06:34:01;7.70;;;1.60;;
18651;SDS011;9455;54.302;10.124;2023-08-08T06:36:28;10.23;;;2.00;;
18651;SDS011;9455;54.302;10.124;2023-08-08T06:38:54;6.03;;;1.70;;
18651;SDS011;9455;54.302;10.124;2023-08-08T06:41:21;6.70;;;2.27;;
18651;SDS011;9455;54.302;10.124;2023-08-08T06:43:47;7.83;;;1.70;;
18651;SDS011;9455;54.302;10.124;2023-08-08T06:46:14;7.93;;;1.83;;
18651;SDS011;9455;54.302;10.124;2023-08-08T06:48:43;4.23;;;1.57;;
18651;SDS011;9455;54.302;10.124;2023-08-08T06:51:09;5.97;;;1.47;;
18651;SDS011;9455;54.302;10.124;2023-08-08T06:53:36;6.10;;;1.33;;
18651;SDS011;9455;54.302;10.124;2023-08-08T06:56:03;6.53;;;1.83;;
18651;SDS011;9455;54.302;10.124;2023-08-08T06:58:29;3.30;;;1.03;;
18651;SDS011;9455;54.302;10.124;2023-08-08T07:00:56;7.50;;;2.13;;
18651;SDS011;9455;54.302;10.124;2023-08-08T07:03:23;1.67;;;1.03;;
18651;SDS011;9455;54.302;10.124;2023-08-08T07:05:51;5.33;;;1.70;;
18651;SDS011;9455;54.302;10.124;2023-08-08T07:08:17;4.60;;;1.20;;
18651;SDS011;9455;54.302;10.124;2023-08-08T07:10:44;6.67;;;1.80;;
18651;SDS011;9455;54.302;10.124;2023-08-08T07:13:11;5.80;;;1.90;;
18651;SDS011;9455;54.302;10.124;2023-08-08T07:15:37;4.33;;;1.23;;
18651;SDS011;9455;54.302;10.124;2023-08-08T07:18:04;4.13;;;1.53;;
18651;SDS011;9455;54.302;10.124;2023-08-08T07:20:31;11.03;;;1.70;;
18651;SDS011;9455;54.302;10.124;2023-08-08T07:23:00;9.03;;;1.60;;
18651;SDS011;9455;54.302;10.124;2023-08-08T07:25:26;13.27;;;1.63;;
18651;SDS011;9455;54.302;10.124;2023-08-08T07:27:53;5.13;;;1.60;;
18651;SDS011;9455;54.302;10.124;2023-08-08T07:30:19;8.20;;;1.43;;
18651;SDS011;9455;54.302;10.124;2023-08-08T07:32:46;4.17;;;1.50;;
18651;SDS011;9455;54.302;10.124;2023-08-08T07:35:12;5.17;;;1.70;;
18651;SDS011;9455;54.302;10.124;2023-08-08T07:37:40;7.70;;;1.83;;
18651;SDS011;9455;54.302;10.124;2023-08-08T07:40:14;1.83;;;1.50;;
18651;SDS011;9455;54.302;10.124;2023-08-08T07:42:42;6.03;;;1.43;;
18651;SDS011;9455;54.302;10.124;2023-08-08T07:45:09;7.87;;;2.50;;
18651;SDS011;9455;54.302;10.124;2023-08-08T07:47:36;8.87;;;1.93;;
18651;SDS011;9455;54.302;10.124;2023-08-08T07:50:02;6.00;;;2.23;;
18651;SDS011;9455;54.302;10.124;2023-08-08T07:52:29;5.07;;;1.30;;
18651;SDS011;9455;54.302;10.124;2023-08-08T07:54:56;5.50;;;1.10;;
18651;SDS011;9455;54.302;10.124;2023-08-08T07:57:26;3.17;;;1.47;;
18651;SDS011;9455;54.302;10.124;2023-08-08T07:59:52;6.73;;;1.53;;
18651;SDS011;9455;54.302;10.124;2023-08-08T08:02:19;5.57;;;1.83;;
18651;SDS011;9455;54.302;10.124;2023-08-08T08:04:46;13.33;;;1.70;;
18651;SDS011;9455;54.302;10.124;2023-08-08T08:07:12;3.03;;;1.30;;
18651;SDS011;9455;54.302;10.124;2023-08-08T08:09:39;6.53;;;1.50;;
18651;SDS011;9455;54.302;10.124;2023-08-08T08:12:07;3.53;;;1.27;;
18651;SDS011;9455;54.302;10.124;2023-08-08T08:14:35;2.77;;;1.70;;
18651;SDS011;9455;54.302;10.124;2023-08-08T08:17:03;4.80;;;1.63;;
18651;SDS011;9455;54.302;10.124;2023-08-08T08:19:30;10.93;;;1.43;;
18651;SDS011;9455;54.302;10.124;2023-08-08T08:21:56;11.73;;;2.20;;
18651;SDS011;9455;54.302;10.124;2023-08-08T08:24:23;4.23;;;1.27;;
18651;SDS011;9455;54.302;10.124;2023-08-08T08:26:50;9.13;;;1.77;;
18651;SDS011;9455;54.302;10.124;2023-08-08T08:29:17;6.67;;;1.70;;
18651;SDS011;9455;54.302;10.124;2023-08-08T08:31:45;2.03;;;1.40;;
18651;SDS011;9455;54.302;10.124;2023-08-08T08:34:11;6.23;;;1.33;;
18651;SDS011;9455;54.302;10.124;2023-08-08T08:36:38;8.30;;;1.00;;
18651;SDS011;9455;54.302;10.124;2023-08-08T08:39:04;9.70;;;1.40;;
18651;SDS011;9455;54.302;10.124;2023-08-08T08:41:31;11.10;;;1.57;;
18651;SDS011;9455;54.302;10.124;2023-08-08T08:44:01;13.70;;;1.63;;
18651;SDS011;9455;54.302;10.124;2023-08-08T08:46:29;3.30;;;1.50;;
18651;SDS011;9455;54.302;10.124;2023-08-08T08:48:57;5.23;;;1.30;;
18651;SDS011;9455;54.302;10.124;2023-08-08T08:51:25;8.63;;;1.43;;
18651;SDS011;9455;54.302;10.124;2023-08-08T08:53:51;6.23;;;1.43;;
18651;SDS011;9455;54.302;10.124;2023-08-08T08:56:18;5.23;;;1.03;;
18651;SDS011;9455;54.302;10.124;2023-08-08T08:58:48;1.40;;;1.07;;
18651;SDS011;9455;54.302;10.124;2023-08-08T09:01:14;5.00;;;1.17;;
18651;SDS011;9455;54.302;10.124;2023-08-08T09:03:43;2.23;;;2.03;;
18651;SDS011;9455;54.302;10.124;2023-08-08T09:06:12;8.03;;;1.50;;
18651;SDS011;9455;54.302;10.124;2023-08-08T09:08:41;6.23;;;1.10;;
18651;SDS011;9455;54.302;10.124;2023-08-08T09:11:07;4.17;;;0.90;;
18651;SDS011;9455;54.302;10.124;2023-08-08T09:13:36;7.37;;;1.17;;
18651;SDS011;9455;54.302;10.124;2023-08-08T09:16:04;6.03;;;1.20;;
18651;SDS011;9455;54.302;10.124;2023-08-08T09:18:32;10.83;;;1.20;;
18651;SDS011;9455;54.302;10.124;2023-08-08T09:20:58;9.90;;;1.20;;
18651;SDS011;9455;54.302;10.124;2023-08-08T09:23:26;4.43;;;1.30;;
18651;SDS011;9455;54.302;10.124;2023-08-08T09:25:53;3.40;;;0.90;;
18651;SDS011;9455;54.302;10.124;2023-08-08T09:28:19;7.13;;;1.80;;
18651;SDS011;9455;54.302;10.124;2023-08-08T09:30:46;6.93;;;1.10;;
18651;SDS011;9455;54.302;10.124;2023-08-08T09:33:13;1.90;;;0.80;;
18651;SDS011;9455;54.302;10.124;2023-08-08T09:35:40;3.80;;;0.87;;
18651;SDS011;9455;54.302;10.124;2023-08-08T09:38:07;3.33;;;0.97;;
18651;SDS011;9455;54.302;10.124;2023-08-08T09:40:35;1.07;;;0.83;;
18651;SDS011;9455;54.302;10.124;2023-08-08T09:43:02;3.63;;;1.00;;
18651;SDS011;9455;54.302;10.124;2023-08-08T09:45:35;1.17;;;1.03;;
18651;SDS011;9455;54.302;10.124;2023-08-08T09:48:02;4.93;;;0.93;;
18651;SDS011;9455;54.302;10.124;2023-08-08T09:50:30;2.90;;;0.93;;
18651;SDS011;9455;54.302;10.124;2023-08-08T09:52:57;6.10;;;1.13;;
18651;SDS011;9455;54.302;10.124;2023-08-08T09:55:25;5.87;;;2.10;;
18651;SDS011;9455;54.302;10.124;2023-08-08T09:57:53;4.83;;;1.37;;
18651;SDS011;9455;54.302;10.124;2023-08-08T10:00:20;6.60;;;0.90;;
18651;SDS011;9455;54.302;10.124;2023-08-08T10:02:46;1.97;;;1.07;;
18651;SDS011;9455;54.302;10.124;2023-08-08T10:05:13;8.33;;;1.10;;
18651;SDS011;9455;54.302;10.124;2023-08-08T10:07:41;4.97;;;0.97;;
18651;SDS011;9455;54.302;10.124;2023-08-08T10:10:08;4.93;;;1.20;;
18651;SDS011;9455;54.302;10.124;2023-08-08T10:12:36;6.17;;;1.00;;
18651;SDS011;9455;54.302;10.124;2023-08-08T10:15:06;6.33;;;1.43;;
18651;SDS011;9455;54.302;10.124;2023-08-08T10:17:34;3.90;;;1.93;;
18651;SDS011;9455;54.302;10.124;2023-08-08T10:20:02;1.27;;;0.93;;
18651;SDS011;9455;54.302;10.124;2023-08-08T10:22:36;3.17;;;1.50;;
18651;SDS011;9455;54.302;10.124;2023-08-08T10:25:04;4.37;;;1.37;;
18651;SDS011;9455;54.302;10.124;2023-08-08T10:27:31;2.43;;;1.30;;
18651;SDS011;9455;54.302;10.124;2023-08-08T10:30:07;2.67;;;0.83;;
18651;SDS011;9455;54.302;10.124;2023-08-08T10:32:38;11.73;;;1.00;;
18651;SDS011;9455;54.302;10.124;2023-08-08T10:35:06;1.07;;;0.70;;
18651;SDS011;9455;54.302;10.124;2023-08-08T10:37:34;3.53;;;1.00;;
18651;SDS011;9455;54.302;10.124;2023-08-08T10:40:01;1.23;;;0.70;;
18651;SDS011;9455;54.302;10.124;2023-08-08T10:42:31;7.13;;;1.23;;
18651;SDS011;9455;54.302;10.124;2023-08-08T10:44:59;15.40;;;1.40;;
18651;SDS011;9455;54.302;10.124;2023-08-08T10:47:31;5.80;;;1.40;;
18651;SDS011;9455;54.302;10.124;2023-08-08T10:50:03;1.60;;;0.80;;
18651;SDS011;9455;54.302;10.124;2023-08-08T10:52:31;1.00;;;0.50;;
18651;SDS011;9455;54.302;10.124;2023-08-08T10:55:00;4.20;;;1.00;;
18651;SDS011;9455;54.302;10.124;2023-08-08T10:57:27;2.80;;;1.00;;
18651;SDS011;9455;54.302;10.124;2023-08-08T10:59:54;4.20;;;0.60;;
18651;SDS011;9455;54.302;10.124;2023-08-08T11:02:21;0.60;;;0.60;;
18651;SDS011;9455;54.302;10.124;2023-08-08T11:04:49;6.23;;;1.00;;
18651;SDS011;9455;54.302;10.124;2023-08-08T11:07:16;0.50;;;0.50;;
18651;SDS011;9455;54.302;10.124;2023-08-08T11:09:43;5.50;;;1.00;;
18651;SDS011;9455;54.302;10.124;2023-08-08T11:12:13;4.97;;;0.90;;
18651;SDS011;9455;54.302;10.124;2023-08-08T11:14:40;5.23;;;0.83;;
18651;SDS011;9455;54.302;10.124;2023-08-08T11:17:07;2.93;;;0.50;;
18651;SDS011;9455;54.302;10.124;2023-08-08T11:19:38;1.83;;;0.77;;
18651;SDS011;9455;54.302;10.124;2023-08-08T11:22:10;6.53;;;1.23;;
18651;SDS011;9455;54.302;10.124;2023-08-08T11:24:37;8.03;;;0.80;;
18651;SDS011;9455;54.302;10.124;2023-08-08T11:27:04;1.33;;;0.80;;
18651;SDS011;9455;54.302;10.124;2023-08-08T11:29:31;3.33;;;0.60;;
18651;SDS011;9455;54.302;10.124;2023-08-08T11:31:59;0.50;;;0.50;;
18651;SDS011;9455;54.302;10.124;2023-08-08T11:34:26;4.63;;;1.23;;
18651;SDS011;9455;54.302;10.124;2023-08-08T11:36:52;0.30;;;0.30;;
18651;SDS011;9455;54.302;10.124;2023-08-08T11:39:21;2.23;;;0.57;;
18651;SDS011;9455;54.302;10.124;2023-08-08T11:41:48;3.07;;;1.17;;
18651;SDS011;9455;54.302;10.124;2023-08-08T11:44:15;0.60;;;0.50;;
18651;SDS011;9455;54.302;10.124;2023-08-08T11:46:43;4.70;;;0.53;;
18651;SDS011;9455;54.302;10.124;2023-08-08T11:49:11;3.80;;;0.97;;
18651;SDS011;9455;54.302;10.124;2023-08-08T11:51:40;0.57;;;0.43;;
18651;SDS011;9455;54.302;10.124;2023-08-08T11:54:09;7.33;;;0.83;;
18651;SDS011;9455;54.302;10.124;2023-08-08T11:56:37;3.50;;;0.70;;
18651;SDS011;9455;54.302;10.124;2023-08-08T11:59:04;8.47;;;0.70;;
18651;SDS011;9455;54.302;10.124;2023-08-08T12:01:32;3.73;;;0.40;;
18651;SDS011;9455;54.302;10.124;2023-08-08T12:04:04;3.00;;;0.93;;
18651;SDS011;9455;54.302;10.124;2023-08-08T12:06:31;1.33;;;0.47;;
18651;SDS011;9455;54.302;10.124;2023-08-08T12:08:58;2.30;;;0.53;;
18651;SDS011;9455;54.302;10.124;2023-08-08T12:11:28;0.40;;;0.40;;
18651;SDS011;9455;54.302;10.124;2023-08-08T12:13:59;1.13;;;0.50;;
18651;SDS011;9455;54.302;10.124;2023-08-08T12:16:27;2.53;;;0.77;;
18651;SDS011;9455;54.302;10.124;2023-08-08T12:18:54;0.73;;;0.47;;
18651;SDS011;9455;54.302;10.124;2023-08-08T12:21:21;2.80;;;0.47;;
18651;SDS011;9455;54.302;10.124;2023-08-08T12:23:48;0.50;;;0.50;;
18651;SDS011;9455;54.302;10.124;2023-08-08T12:26:14;4.20;;;1.30;;
18651;SDS011;9455;54.302;10.124;2023-08-08T12:28:41;1.77;;;0.57;;
18651;SDS011;9455;54.302;10.124;2023-08-08T12:31:09;0.67;;;0.67;;
18651;SDS011;9455;54.302;10.124;2023-08-08T12:33:35;4.53;;;0.50;;
18651;SDS011;9455;54.302;10.124;2023-08-08T12:36:02;2.33;;;0.60;;
18651;SDS011;9455;54.302;10.124;2023-08-08T12:38:29;2.90;;;0.70;;
18651;SDS011;9455;54.302;10.124;2023-08-08T12:40:55;5.87;;;0.70;;
18651;SDS011;9455;54.302;10.124;2023-08-08T12:43:22;5.03;;;0.93;;
18651;SDS011;9455;54.302;10.124;2023-08-08T12:45:49;0.57;;;0.40;;
18651;SDS011;9455;54.302;10.124;2023-08-08T12:48:17;4.77;;;0.80;;
18651;SDS011;9455;54.302;10.124;2023-08-08T12:50:43;4.50;;;0.70;;
18651;SDS011;9455;54.302;10.124;2023-08-08T12:53:10;2.03;;;0.53;;
18651;SDS011;9455;54.302;10.124;2023-08-08T12:55:36;1.40;;;0.57;;
18651;SDS011;9455;54.302;10.124;2023-08-08T12:58:04;9.33;;;0.80;;
18651;SDS011;9455;54.302;10.124;2023-08-08T13:00:31;5.40;;;0.70;;
18651;SDS011;9455;54.302;10.124;2023-08-08T13:02:57;0.93;;;0.60;;
18651;SDS011;9455;54.302;10.124;2023-08-08T13:05:25;2.93;;;1.00;;
18651;SDS011;9455;54.302;10.124;2023-08-08T13:07:52;2.67;;;0.90;;
18651;SDS011;9455;54.302;10.124;2023-08-08T13:10:18;3.30;;;0.90;;
18651;SDS011;9455;54.302;10.124;2023-08-08T13:12:45;1.03;;;0.60;;
18651;SDS011;9455;54.302;10.124;2023-08-08T13:15:12;0.97;;;0.60;;
18651;SDS011;9455;54.302;10.124;2023-08-08T13:17:39;0.70;;;0.67;;
18651;SDS011;9455;54.302;10.124;2023-08-08T13:20:06;0.50;;;0.50;;
18651;SDS011;9455;54.302;10.124;2023-08-08T13:22:35;1.50;;;0.50;;
18651;SDS011;9455;54.302;10.124;2023-08-08T13:25:01;4.77;;;0.60;;
18651;SDS011;9455;54.302;10.124;2023-08-08T13:27:28;1.43;;;0.87;;
18651;SDS011;9455;54.302;10.124;2023-08-08T13:29:54;5.00;;;0.80;;
18651;SDS011;9455;54.302;10.124;2023-08-08T13:32:21;2.60;;;0.60;;
18651;SDS011;9455;54.302;10.124;2023-08-08T13:34:48;3.83;;;0.70;;
18651;SDS011;9455;54.302;10.124;2023-08-08T13:37:14;4.60;;;0.50;;
18651;SDS011;9455;54.302;10.124;2023-08-08T13:39:43;4.20;;;0.80;;
18651;SDS011;9455;54.302;10.124;2023-08-08T13:42:10;1.50;;;0.67;;
18651;SDS011;9455;54.302;10.124;2023-08-08T13:44:36;2.90;;;1.00;;
18651;SDS011;9455;54.302;10.124;2023-08-08T13:47:03;1.13;;;0.93;;
18651;SDS011;9455;54.302;10.124;2023-08-08T13:49:29;3.60;;;0.70;;
18651;SDS011;9455;54.302;10.124;2023-08-08T13:51:56;2.83;;;0.63;;
18651;SDS011;9455;54.302;10.124;2023-08-08T13:54:23;2.47;;;0.60;;
18651;SDS011;9455;54.302;10.124;2023-08-08T13:56:51;1.97;;;0.60;;
18651;SDS011;9455;54.302;10.124;2023-08-08T13:59:18;2.50;;;0.83;;
18651;SDS011;9455;54.302;10.124;2023-08-08T14:01:44;1.80;;;0.70;;
18651;SDS011;9455;54.302;10.124;2023-08-08T14:04:11;1.70;;;0.63;;
18651;SDS011;9455;54.302;10.124;2023-08-08T14:06:37;8.63;;;1.00;;
18651;SDS011;9455;54.302;10.124;2023-08-08T14:09:04;4.20;;;0.90;;
18651;SDS011;9455;54.302;10.124;2023-08-08T14:11:32;2.57;;;0.73;;
18651;SDS011;9455;54.302;10.124;2023-08-08T14:14:00;7.80;;;1.00;;
18651;SDS011;9455;54.302;10.124;2023-08-08T14:16:27;2.37;;;0.93;;
18651;SDS011;9455;54.302;10.124;2023-08-08T14:18:53;3.13;;;1.00;;
18651;SDS011;9455;54.302;10.124;2023-08-08T14:21:20;2.73;;;0.80;;
18651;SDS011;9455;54.302;10.124;2023-08-08T14:23:46;10.17;;;0.63;;
18651;SDS011;9455;54.302;10.124;2023-08-08T14:26:13;5.70;;;1.10;;
18651;SDS011;9455;54.302;10.124;2023-08-08T14:28:39;1.27;;;0.40;;
18651;SDS011;9455;54.302;10.124;2023-08-08T14:31:07;8.87;;;0.93;;
18651;SDS011;9455;54.302;10.124;2023-08-08T14:33:34;1.20;;;0.90;;
18651;SDS011;9455;54.302;10.124;2023-08-08T14:36:01;2.13;;;0.50;;
18651;SDS011;9455;54.302;10.124;2023-08-08T14:38:27;3.90;;;0.57;;
18651;SDS011;9455;54.302;10.124;2023-08-08T14:40:54;7.53;;;1.00;;
18651;SDS011;9455;54.302;10.124;2023-08-08T14:43:21;5.70;;;0.97;;
18651;SDS011;9455;54.302;10.124;2023-08-08T14:45:48;9.23;;;0.93;;
18651;SDS011;9455;54.302;10.124;2023-08-08T14:48:16;3.10;;;0.40;;